sensor_id;sensor_type;location;lat;lon;timestamp;P1;durP1;ratioP1;P2;durP2;ratioP2
47635;SDS011;33364;50.766;15.338;2023-07-29T00:00:34;1.75;;;1.38;;
47635;SDS011;33364;50.766;15.338;2023-07-29T00:05:47;2.40;;;1.20;;
47635;SDS011;33364;50.766;15.338;2023-07-29T00:08:13;2.85;;;1.27;;
47635;SDS011;33364;50.766;15.338;2023-07-29T00:10:39;2.42;;;1.02;;
47635;SDS011;33364;50.766;15.338;2023-07-29T00:13:05;2.67;;;1.55;;
47635;SDS011;33364;50.766;15.338;2023-07-29T00:15:31;3.47;;;1.10;;
47635;SDS011;33364;50.766;15.338;2023-07-29T00:17:57;3.65;;;1.20;;
47635;SDS011;33364;50.766;15.338;2023-07-29T00:20:23;3.10;;;0.85;;
47635;SDS011;33364;50.766;15.338;2023-07-29T00:22:49;5.50;;;1.25;;
47635;SDS011;33364;50.766;15.338;2023-07-29T00:25:17;3.50;;;1.10;;
47635;SDS011;33364;50.766;15.338;2023-07-29T00:27:43;4.50;;;0.90;;
47635;SDS011;33364;50.766;15.338;2023-07-29T00:30:09;4.43;;;1.02;;
47635;SDS011;33364;50.766;15.338;2023-07-29T00:32:35;5.45;;;1.40;;
47635;SDS011;33364;50.766;15.338;2023-07-29T00:35:01;1.83;;;1.10;;
47635;SDS011;33364;50.766;15.338;2023-07-29T00:37:28;4.63;;;0.95;;
47635;SDS011;33364;50.766;15.338;2023-07-29T00:39:55;0.90;;;0.90;;
47635;SDS011;33364;50.766;15.338;2023-07-29T00:42:22;3.13;;;1.10;;
47635;SDS011;33364;50.766;15.338;2023-07-29T00:44:47;2.92;;;1.13;;
47635;SDS011;33364;50.766;15.338;2023-07-29T00:47:14;3.15;;;0.90;;
47635;SDS011;33364;50.766;15.338;2023-07-29T00:49:41;6.28;;;1.20;;
47635;SDS011;33364;50.766;15.338;2023-07-29T00:52:08;2.63;;;1.00;;
47635;SDS011;33364;50.766;15.338;2023-07-29T00:54:36;1.48;;;1.02;;
47635;SDS011;33364;50.766;15.338;2023-07-29T00:57:02;2.80;;;1.20;;
47635;SDS011;33364;50.766;15.338;2023-07-29T00:59:28;1.40;;;1.17;;
47635;SDS011;33364;50.766;15.338;2023-07-29T01:01:55;1.27;;;1.15;;
47635;SDS011;33364;50.766;15.338;2023-07-29T01:04:21;2.60;;;1.30;;
47635;SDS011;33364;50.766;15.338;2023-07-29T01:06:51;2.20;;;0.90;;
47635;SDS011;33364;50.766;15.338;2023-07-29T01:12:27;1.50;;;1.05;;
47635;SDS011;33364;50.766;15.338;2023-07-29T01:17:33;4.22;;;1.02;;
47635;SDS011;33364;50.766;15.338;2023-07-29T01:22:35;3.60;;;0.85;;
47635;SDS011;33364;50.766;15.338;2023-07-29T01:25:02;2.00;;;0.80;;
47635;SDS011;33364;50.766;15.338;2023-07-29T01:27:29;0.95;;;0.75;;
47635;SDS011;33364;50.766;15.338;2023-07-29T01:29:55;1.85;;;1.20;;
47635;SDS011;33364;50.766;15.338;2023-07-29T01:32:25;2.92;;;1.08;;
47635;SDS011;33364;50.766;15.338;2023-07-29T01:35:27;3.50;;;1.20;;
47635;SDS011;33364;50.766;15.338;2023-07-29T01:37:55;2.58;;;0.90;;
47635;SDS011;33364;50.766;15.338;2023-07-29T01:40:28;1.17;;;0.82;;
47635;SDS011;33364;50.766;15.338;2023-07-29T01:42:54;1.90;;;0.80;;
47635;SDS011;33364;50.766;15.338;2023-07-29T01:45:24;2.38;;;0.60;;
47635;SDS011;33364;50.766;15.338;2023-07-29T01:47:53;4.63;;;0.85;;
47635;SDS011;33364;50.766;15.338;2023-07-29T01:50:19;3.60;;;1.08;;
47635;SDS011;33364;50.766;15.338;2023-07-29T01:52:45;2.67;;;1.33;;
47635;SDS011;33364;50.766;15.338;2023-07-29T01:55:11;1.48;;;1.20;;
47635;SDS011;33364;50.766;15.338;2023-07-29T01:57:37;1.48;;;1.13;;
47635;SDS011;33364;50.766;15.338;2023-07-29T02:00:02;1.88;;;1.27;;
47635;SDS011;33364;50.766;15.338;2023-07-29T02:02:29;2.92;;;1.20;;
47635;SDS011;33364;50.766;15.338;2023-07-29T02:04:55;2.80;;;1.10;;
47635;SDS011;33364;50.766;15.338;2023-07-29T02:07:21;0.85;;;0.82;;
47635;SDS011;33364;50.766;15.338;2023-07-29T02:09:47;2.47;;;0.90;;
47635;SDS011;33364;50.766;15.338;2023-07-29T02:12:13;1.20;;;1.00;;
47635;SDS011;33364;50.766;15.338;2023-07-29T02:14:38;1.42;;;1.00;;
47635;SDS011;33364;50.766;15.338;2023-07-29T02:17:04;2.15;;;1.30;;
47635;SDS011;33364;50.766;15.338;2023-07-29T02:19:30;1.33;;;0.80;;
47635;SDS011;33364;50.766;15.338;2023-07-29T02:21:56;1.30;;;1.20;;
47635;SDS011;33364;50.766;15.338;2023-07-29T02:24:21;1.52;;;1.00;;
47635;SDS011;33364;50.766;15.338;2023-07-29T02:26:47;2.17;;;1.23;;
47635;SDS011;33364;50.766;15.338;2023-07-29T02:29:13;4.82;;;1.15;;
47635;SDS011;33364;50.766;15.338;2023-07-29T02:31:39;1.10;;;0.88;;
47635;SDS011;33364;50.766;15.338;2023-07-29T02:34:05;1.10;;;1.00;;
47635;SDS011;33364;50.766;15.338;2023-07-29T02:36:30;2.50;;;1.10;;
47635;SDS011;33364;50.766;15.338;2023-07-29T02:38:56;1.38;;;1.20;;
47635;SDS011;33364;50.766;15.338;2023-07-29T02:41:22;2.00;;;1.15;;
47635;SDS011;33364;50.766;15.338;2023-07-29T02:43:48;2.15;;;1.20;;
47635;SDS011;33364;50.766;15.338;2023-07-29T02:46:15;1.25;;;1.10;;
47635;SDS011;33364;50.766;15.338;2023-07-29T02:48:42;2.13;;;1.30;;
47635;SDS011;33364;50.766;15.338;2023-07-29T02:51:08;3.20;;;1.05;;
47635;SDS011;33364;50.766;15.338;2023-07-29T02:53:34;3.65;;;1.30;;
47635;SDS011;33364;50.766;15.338;2023-07-29T02:56:02;4.43;;;1.55;;
47635;SDS011;33364;50.766;15.338;2023-07-29T02:58:29;1.30;;;1.17;;
47635;SDS011;33364;50.766;15.338;2023-07-29T03:01:04;1.83;;;1.10;;
47635;SDS011;33364;50.766;15.338;2023-07-29T03:03:31;1.15;;;1.05;;
47635;SDS011;33364;50.766;15.338;2023-07-29T03:06:05;1.23;;;1.10;;
47635;SDS011;33364;50.766;15.338;2023-07-29T03:08:32;2.72;;;1.30;;
47635;SDS011;33364;50.766;15.338;2023-07-29T03:11:04;4.68;;;1.40;;
47635;SDS011;33364;50.766;15.338;2023-07-29T03:13:31;1.67;;;1.23;;
47635;SDS011;33364;50.766;15.338;2023-07-29T03:16:11;2.10;;;1.45;;
47635;SDS011;33364;50.766;15.338;2023-07-29T03:18:41;2.63;;;1.60;;
47635;SDS011;33364;50.766;15.338;2023-07-29T03:21:08;3.25;;;1.08;;
47635;SDS011;33364;50.766;15.338;2023-07-29T03:23:35;2.15;;;1.02;;
47635;SDS011;33364;50.766;15.338;2023-07-29T03:26:02;4.03;;;1.45;;
47635;SDS011;33364;50.766;15.338;2023-07-29T03:28:35;2.72;;;1.50;;
47635;SDS011;33364;50.766;15.338;2023-07-29T03:31:03;2.10;;;1.70;;
47635;SDS011;33364;50.766;15.338;2023-07-29T03:33:29;5.03;;;1.40;;
47635;SDS011;33364;50.766;15.338;2023-07-29T03:35:55;3.40;;;1.40;;
47635;SDS011;33364;50.766;15.338;2023-07-29T03:38:21;3.45;;;1.23;;
47635;SDS011;33364;50.766;15.338;2023-07-29T03:40:47;3.88;;;1.83;;
47635;SDS011;33364;50.766;15.338;2023-07-29T03:43:12;2.33;;;2.00;;
47635;SDS011;33364;50.766;15.338;2023-07-29T03:45:40;1.75;;;1.10;;
47635;SDS011;33364;50.766;15.338;2023-07-29T03:48:06;1.65;;;1.17;;
47635;SDS011;33364;50.766;15.338;2023-07-29T03:50:33;3.40;;;1.40;;
47635;SDS011;33364;50.766;15.338;2023-07-29T03:53:00;3.33;;;1.50;;
47635;SDS011;33364;50.766;15.338;2023-07-29T03:55:30;6.65;;;1.50;;
47635;SDS011;33364;50.766;15.338;2023-07-29T03:57:57;2.30;;;1.58;;
47635;SDS011;33364;50.766;15.338;2023-07-29T04:00:23;3.05;;;1.80;;
47635;SDS011;33364;50.766;15.338;2023-07-29T04:02:49;3.17;;;1.83;;
47635;SDS011;33364;50.766;15.338;2023-07-29T04:05:16;1.98;;;1.52;;
47635;SDS011;33364;50.766;15.338;2023-07-29T04:07:42;1.92;;;1.20;;
47635;SDS011;33364;50.766;15.338;2023-07-29T04:10:08;5.57;;;1.35;;
47635;SDS011;33364;50.766;15.338;2023-07-29T04:12:34;2.03;;;1.25;;
47635;SDS011;33364;50.766;15.338;2023-07-29T04:15:01;3.90;;;1.30;;
47635;SDS011;33364;50.766;15.338;2023-07-29T04:17:27;2.03;;;1.83;;
47635;SDS011;33364;50.766;15.338;2023-07-29T04:19:53;1.60;;;1.30;;
47635;SDS011;33364;50.766;15.338;2023-07-29T04:22:18;2.33;;;2.13;;
47635;SDS011;33364;50.766;15.338;2023-07-29T04:24:44;3.35;;;2.88;;
47635;SDS011;33364;50.766;15.338;2023-07-29T04:27:10;4.50;;;3.40;;
47635;SDS011;33364;50.766;15.338;2023-07-29T04:29:36;8.50;;;2.58;;
47635;SDS011;33364;50.766;15.338;2023-07-29T04:32:02;4.53;;;2.15;;
47635;SDS011;33364;50.766;15.338;2023-07-29T04:34:28;1.85;;;1.60;;
47635;SDS011;33364;50.766;15.338;2023-07-29T04:36:54;1.30;;;1.20;;
47635;SDS011;33364;50.766;15.338;2023-07-29T04:39:20;2.53;;;1.70;;
47635;SDS011;33364;50.766;15.338;2023-07-29T04:41:46;2.22;;;1.50;;
47635;SDS011;33364;50.766;15.338;2023-07-29T04:44:12;1.40;;;1.13;;
47635;SDS011;33364;50.766;15.338;2023-07-29T04:46:37;2.33;;;1.30;;
47635;SDS011;33364;50.766;15.338;2023-07-29T04:49:04;2.35;;;1.75;;
47635;SDS011;33364;50.766;15.338;2023-07-29T04:51:30;1.83;;;1.67;;
47635;SDS011;33364;50.766;15.338;2023-07-29T04:53:57;3.67;;;1.55;;
47635;SDS011;33364;50.766;15.338;2023-07-29T04:56:23;4.43;;;2.10;;
47635;SDS011;33364;50.766;15.338;2023-07-29T04:58:49;2.90;;;2.00;;
47635;SDS011;33364;50.766;15.338;2023-07-29T05:01:15;5.35;;;2.47;;
47635;SDS011;33364;50.766;15.338;2023-07-29T05:03:41;4.70;;;2.60;;
47635;SDS011;33364;50.766;15.338;2023-07-29T05:06:06;4.85;;;2.90;;
47635;SDS011;33364;50.766;15.338;2023-07-29T05:08:32;7.15;;;3.72;;
47635;SDS011;33364;50.766;15.338;2023-07-29T05:10:58;5.50;;;2.90;;
47635;SDS011;33364;50.766;15.338;2023-07-29T05:13:24;4.05;;;2.40;;
47635;SDS011;33364;50.766;15.338;2023-07-29T05:15:50;4.80;;;2.75;;
47635;SDS011;33364;50.766;15.338;2023-07-29T05:18:16;4.47;;;2.75;;
47635;SDS011;33364;50.766;15.338;2023-07-29T05:20:42;4.22;;;1.95;;
47635;SDS011;33364;50.766;15.338;2023-07-29T05:23:08;3.22;;;2.10;;
47635;SDS011;33364;50.766;15.338;2023-07-29T05:25:34;3.90;;;2.85;;
47635;SDS011;33364;50.766;15.338;2023-07-29T05:28:03;6.28;;;2.33;;
47635;SDS011;33364;50.766;15.338;2023-07-29T05:30:29;7.18;;;2.63;;
47635;SDS011;33364;50.766;15.338;2023-07-29T05:33:00;5.88;;;2.65;;
47635;SDS011;33364;50.766;15.338;2023-07-29T05:35:26;4.60;;;2.28;;
47635;SDS011;33364;50.766;15.338;2023-07-29T05:37:52;2.60;;;1.85;;
47635;SDS011;33364;50.766;15.338;2023-07-29T05:40:17;1.80;;;1.55;;
47635;SDS011;33364;50.766;15.338;2023-07-29T05:42:43;3.30;;;1.80;;
47635;SDS011;33364;50.766;15.338;2023-07-29T05:45:10;4.03;;;2.00;;
47635;SDS011;33364;50.766;15.338;2023-07-29T05:47:36;2.20;;;1.70;;
47635;SDS011;33364;50.766;15.338;2023-07-29T05:50:03;4.68;;;1.77;;
47635;SDS011;33364;50.766;15.338;2023-07-29T05:52:30;3.03;;;1.90;;
47635;SDS011;33364;50.766;15.338;2023-07-29T05:54:56;3.33;;;2.38;;
47635;SDS011;33364;50.766;15.338;2023-07-29T05:57:22;3.58;;;2.30;;
47635;SDS011;33364;50.766;15.338;2023-07-29T05:59:48;2.65;;;1.95;;
47635;SDS011;33364;50.766;15.338;2023-07-29T06:02:14;5.20;;;2.20;;
47635;SDS011;33364;50.766;15.338;2023-07-29T06:04:39;2.72;;;1.90;;
47635;SDS011;33364;50.766;15.338;2023-07-29T06:07:06;5.32;;;2.03;;
47635;SDS011;33364;50.766;15.338;2023-07-29T06:09:32;2.63;;;2.40;;
47635;SDS011;33364;50.766;15.338;2023-07-29T06:11:58;3.75;;;2.15;;
47635;SDS011;33364;50.766;15.338;2023-07-29T06:14:23;3.65;;;2.65;;
47635;SDS011;33364;50.766;15.338;2023-07-29T06:16:49;5.55;;;2.70;;
47635;SDS011;33364;50.766;15.338;2023-07-29T06:19:15;4.13;;;2.67;;
47635;SDS011;33364;50.766;15.338;2023-07-29T06:21:41;2.83;;;2.25;;
47635;SDS011;33364;50.766;15.338;2023-07-29T06:24:07;4.93;;;3.92;;
47635;SDS011;33364;50.766;15.338;2023-07-29T06:26:33;3.20;;;2.60;;
47635;SDS011;33364;50.766;15.338;2023-07-29T06:28:59;4.25;;;2.80;;
47635;SDS011;33364;50.766;15.338;2023-07-29T06:31:25;2.70;;;2.17;;
47635;SDS011;33364;50.766;15.338;2023-07-29T06:33:50;4.47;;;2.92;;
47635;SDS011;33364;50.766;15.338;2023-07-29T06:36:16;5.22;;;3.35;;
47635;SDS011;33364;50.766;15.338;2023-07-29T06:38:43;4.18;;;3.38;;
47635;SDS011;33364;50.766;15.338;2023-07-29T06:41:08;3.70;;;3.28;;
47635;SDS011;33364;50.766;15.338;2023-07-29T06:43:34;6.75;;;4.00;;
47635;SDS011;33364;50.766;15.338;2023-07-29T06:46:00;7.88;;;5.72;;
47635;SDS011;33364;50.766;15.338;2023-07-29T06:48:26;6.15;;;5.40;;
47635;SDS011;33364;50.766;15.338;2023-07-29T06:50:52;5.63;;;4.82;;
47635;SDS011;33364;50.766;15.338;2023-07-29T06:53:17;4.65;;;4.25;;
47635;SDS011;33364;50.766;15.338;2023-07-29T06:55:44;7.88;;;5.97;;
47635;SDS011;33364;50.766;15.338;2023-07-29T06:58:10;8.10;;;7.30;;
47635;SDS011;33364;50.766;15.338;2023-07-29T07:00:36;10.63;;;8.63;;
47635;SDS011;33364;50.766;15.338;2023-07-29T07:03:01;11.70;;;10.50;;
47635;SDS011;33364;50.766;15.338;2023-07-29T07:05:28;14.90;;;13.30;;
47635;SDS011;33364;50.766;15.338;2023-07-29T07:07:53;12.55;;;11.35;;
47635;SDS011;33364;50.766;15.338;2023-07-29T07:10:19;11.38;;;10.27;;
47635;SDS011;33364;50.766;15.338;2023-07-29T07:12:45;13.57;;;12.13;;
47635;SDS011;33364;50.766;15.338;2023-07-29T07:15:11;12.57;;;11.27;;
47635;SDS011;33364;50.766;15.338;2023-07-29T07:17:36;13.73;;;12.32;;
47635;SDS011;33364;50.766;15.338;2023-07-29T07:20:02;13.85;;;12.48;;
47635;SDS011;33364;50.766;15.338;2023-07-29T07:22:29;11.93;;;10.70;;
47635;SDS011;33364;50.766;15.338;2023-07-29T07:24:55;12.48;;;10.90;;
47635;SDS011;33364;50.766;15.338;2023-07-29T07:27:20;11.68;;;9.82;;
47635;SDS011;33364;50.766;15.338;2023-07-29T07:29:46;11.30;;;9.65;;
47635;SDS011;33364;50.766;15.338;2023-07-29T07:32:12;11.57;;;10.30;;
47635;SDS011;33364;50.766;15.338;2023-07-29T07:34:38;12.05;;;10.77;;
47635;SDS011;33364;50.766;15.338;2023-07-29T07:37:03;12.18;;;10.93;;
47635;SDS011;33364;50.766;15.338;2023-07-29T07:39:30;11.07;;;10.07;;
47635;SDS011;33364;50.766;15.338;2023-07-29T07:41:57;11.70;;;10.15;;
47635;SDS011;33364;50.766;15.338;2023-07-29T07:44:23;11.15;;;10.15;;
47635;SDS011;33364;50.766;15.338;2023-07-29T07:46:51;10.75;;;9.65;;
47635;SDS011;33364;50.766;15.338;2023-07-29T07:49:18;10.77;;;9.75;;
47635;SDS011;33364;50.766;15.338;2023-07-29T07:51:43;10.98;;;9.50;;
47635;SDS011;33364;50.766;15.338;2023-07-29T07:54:10;9.88;;;8.98;;
47635;SDS011;33364;50.766;15.338;2023-07-29T07:56:35;11.02;;;10.02;;
47635;SDS011;33364;50.766;15.338;2023-07-29T07:59:01;16.70;;;8.98;;
47635;SDS011;33364;50.766;15.338;2023-07-29T08:01:27;11.60;;;9.50;;
47635;SDS011;33364;50.766;15.338;2023-07-29T08:03:53;9.98;;;8.98;;
47635;SDS011;33364;50.766;15.338;2023-07-29T08:06:18;11.35;;;10.25;;
47635;SDS011;33364;50.766;15.338;2023-07-29T08:08:44;11.18;;;9.63;;
47635;SDS011;33364;50.766;15.338;2023-07-29T08:11:10;43.38;;;33.92;;
47635;SDS011;33364;50.766;15.338;2023-07-29T08:13:36;7.38;;;6.25;;
47635;SDS011;33364;50.766;15.338;2023-07-29T08:16:02;6.68;;;6.18;;
47635;SDS011;33364;50.766;15.338;2023-07-29T08:18:30;6.00;;;5.50;;
47635;SDS011;33364;50.766;15.338;2023-07-29T08:20:57;6.47;;;5.53;;
47635;SDS011;33364;50.766;15.338;2023-07-29T08:23:25;7.40;;;5.72;;
47635;SDS011;33364;50.766;15.338;2023-07-29T08:25:54;7.40;;;5.78;;
47635;SDS011;33364;50.766;15.338;2023-07-29T08:28:22;9.27;;;7.20;;
47635;SDS011;33364;50.766;15.338;2023-07-29T08:30:51;6.68;;;5.50;;
47635;SDS011;33364;50.766;15.338;2023-07-29T08:33:17;6.20;;;5.65;;
47635;SDS011;33364;50.766;15.338;2023-07-29T08:35:42;21.30;;;15.70;;
47635;SDS011;33364;50.766;15.338;2023-07-29T08:38:08;5.93;;;4.85;;
47635;SDS011;33364;50.766;15.338;2023-07-29T08:40:34;5.82;;;4.53;;
47635;SDS011;33364;50.766;15.338;2023-07-29T08:43:04;6.22;;;5.63;;
47635;SDS011;33364;50.766;15.338;2023-07-29T08:45:31;6.18;;;5.25;;
47635;SDS011;33364;50.766;15.338;2023-07-29T08:48:00;5.03;;;4.63;;
47635;SDS011;33364;50.766;15.338;2023-07-29T08:50:31;4.97;;;4.10;;
47635;SDS011;33364;50.766;15.338;2023-07-29T08:52:59;5.15;;;3.65;;
47635;SDS011;33364;50.766;15.338;2023-07-29T08:55:26;5.30;;;4.15;;
47635;SDS011;33364;50.766;15.338;2023-07-29T08:57:52;5.38;;;4.82;;
47635;SDS011;33364;50.766;15.338;2023-07-29T09:00:19;4.65;;;4.25;;
47635;SDS011;33364;50.766;15.338;2023-07-29T09:02:46;4.40;;;4.00;;
47635;SDS011;33364;50.766;15.338;2023-07-29T09:05:11;3.70;;;3.15;;
47635;SDS011;33364;50.766;15.338;2023-07-29T09:07:37;3.63;;;3.33;;
47635;SDS011;33364;50.766;15.338;2023-07-29T09:10:04;5.32;;;2.80;;
47635;SDS011;33364;50.766;15.338;2023-07-29T09:12:34;3.97;;;3.58;;
47635;SDS011;33364;50.766;15.338;2023-07-29T09:14:59;4.78;;;2.78;;
47635;SDS011;33364;50.766;15.338;2023-07-29T09:17:25;3.10;;;2.80;;
47635;SDS011;33364;50.766;15.338;2023-07-29T09:19:51;4.53;;;2.80;;
47635;SDS011;33364;50.766;15.338;2023-07-29T09:22:20;3.58;;;2.50;;
47635;SDS011;33364;50.766;15.338;2023-07-29T09:24:46;4.20;;;2.38;;
47635;SDS011;33364;50.766;15.338;2023-07-29T09:27:25;3.40;;;1.95;;
47635;SDS011;33364;50.766;15.338;2023-07-29T09:29:53;2.97;;;2.25;;
47635;SDS011;33364;50.766;15.338;2023-07-29T09:32:20;2.80;;;1.90;;
47635;SDS011;33364;50.766;15.338;2023-07-29T09:34:47;2.95;;;1.90;;
47635;SDS011;33364;50.766;15.338;2023-07-29T09:37:23;4.20;;;2.05;;
47635;SDS011;33364;50.766;15.338;2023-07-29T09:39:49;3.83;;;2.00;;
47635;SDS011;33364;50.766;15.338;2023-07-29T09:42:20;2.15;;;1.70;;
47635;SDS011;33364;50.766;15.338;2023-07-29T09:44:48;6.60;;;2.50;;
47635;SDS011;33364;50.766;15.338;2023-07-29T09:47:21;3.17;;;1.70;;
47635;SDS011;33364;50.766;15.338;2023-07-29T09:49:48;2.72;;;1.75;;
47635;SDS011;33364;50.766;15.338;2023-07-29T09:52:16;1.80;;;1.55;;
47635;SDS011;33364;50.766;15.338;2023-07-29T09:54:45;2.63;;;1.60;;
47635;SDS011;33364;50.766;15.338;2023-07-29T09:57:16;4.97;;;1.85;;
47635;SDS011;33364;50.766;15.338;2023-07-29T09:59:43;3.25;;;1.70;;
47635;SDS011;33364;50.766;15.338;2023-07-29T10:02:19;8.55;;;2.78;;
47635;SDS011;33364;50.766;15.338;2023-07-29T10:04:46;4.43;;;1.45;;
47635;SDS011;33364;50.766;15.338;2023-07-29T10:07:12;2.88;;;1.55;;
47635;SDS011;33364;50.766;15.338;2023-07-29T10:09:40;4.18;;;2.65;;
47635;SDS011;33364;50.766;15.338;2023-07-29T10:12:06;1.90;;;1.50;;
47635;SDS011;33364;50.766;15.338;2023-07-29T10:14:33;2.80;;;1.55;;
47635;SDS011;33364;50.766;15.338;2023-07-29T10:16:59;2.10;;;1.50;;
47635;SDS011;33364;50.766;15.338;2023-07-29T10:19:25;4.15;;;1.50;;
47635;SDS011;33364;50.766;15.338;2023-07-29T10:21:52;2.13;;;1.80;;
47635;SDS011;33364;50.766;15.338;2023-07-29T10:24:18;3.45;;;2.80;;
47635;SDS011;33364;50.766;15.338;2023-07-29T10:26:49;2.22;;;1.50;;
47635;SDS011;33364;50.766;15.338;2023-07-29T10:29:17;5.40;;;3.00;;
47635;SDS011;33364;50.766;15.338;2023-07-29T10:31:46;3.78;;;2.30;;
47635;SDS011;33364;50.766;15.338;2023-07-29T10:34:12;2.72;;;1.90;;
47635;SDS011;33364;50.766;15.338;2023-07-29T10:36:40;2.08;;;1.48;;
47635;SDS011;33364;50.766;15.338;2023-07-29T10:39:07;2.50;;;1.40;;
47635;SDS011;33364;50.766;15.338;2023-07-29T10:47:12;1.60;;;1.50;;
47635;SDS011;33364;50.766;15.338;2023-07-29T10:49:42;2.50;;;1.67;;
47635;SDS011;33364;50.766;15.338;2023-07-29T10:52:13;3.30;;;1.30;;
47635;SDS011;33364;50.766;15.338;2023-07-29T10:54:44;5.63;;;1.60;;
47635;SDS011;33364;50.766;15.338;2023-07-29T10:57:14;4.78;;;2.20;;
47635;SDS011;33364;50.766;15.338;2023-07-29T10:59:41;2.30;;;1.70;;
47635;SDS011;33364;50.766;15.338;2023-07-29T11:02:19;2.08;;;1.63;;
47635;SDS011;33364;50.766;15.338;2023-07-29T11:04:49;3.20;;;1.60;;
47635;SDS011;33364;50.766;15.338;2023-07-29T11:09:45;2.42;;;1.73;;
47635;SDS011;33364;50.766;15.338;2023-07-29T11:15:21;2.22;;;1.48;;
47635;SDS011;33364;50.766;15.338;2023-07-29T11:18:06;1.92;;;1.48;;
47635;SDS011;33364;50.766;15.338;2023-07-29T11:20:35;2.15;;;1.38;;
47635;SDS011;33364;50.766;15.338;2023-07-29T11:23:02;2.53;;;1.83;;
47635;SDS011;33364;50.766;15.338;2023-07-29T11:25:29;1.88;;;1.33;;
47635;SDS011;33364;50.766;15.338;2023-07-29T11:27:57;3.65;;;1.85;;
47635;SDS011;33364;50.766;15.338;2023-07-29T11:30:23;1.55;;;1.40;;
47635;SDS011;33364;50.766;15.338;2023-07-29T11:32:55;3.88;;;1.60;;
47635;SDS011;33364;50.766;15.338;2023-07-29T11:35:21;4.00;;;1.70;;
47635;SDS011;33364;50.766;15.338;2023-07-29T11:37:48;3.40;;;1.70;;
47635;SDS011;33364;50.766;15.338;2023-07-29T11:40:18;4.88;;;1.50;;
47635;SDS011;33364;50.766;15.338;2023-07-29T11:42:46;3.45;;;1.80;;
47635;SDS011;33364;50.766;15.338;2023-07-29T11:45:12;3.15;;;1.50;;
47635;SDS011;33364;50.766;15.338;2023-07-29T11:47:39;2.88;;;1.42;;
47635;SDS011;33364;50.766;15.338;2023-07-29T11:50:06;2.28;;;1.30;;
47635;SDS011;33364;50.766;15.338;2023-07-29T11:52:40;2.55;;;1.38;;
47635;SDS011;33364;50.766;15.338;2023-07-29T11:55:07;2.35;;;1.55;;
47635;SDS011;33364;50.766;15.338;2023-07-29T11:57:33;3.70;;;1.58;;
47635;SDS011;33364;50.766;15.338;2023-07-29T12:00:05;1.80;;;1.30;;
47635;SDS011;33364;50.766;15.338;2023-07-29T12:02:33;2.05;;;1.50;;
47635;SDS011;33364;50.766;15.338;2023-07-29T12:05:02;4.13;;;1.23;;
47635;SDS011;33364;50.766;15.338;2023-07-29T12:07:29;1.85;;;1.20;;
47635;SDS011;33364;50.766;15.338;2023-07-29T12:09:55;1.30;;;1.10;;
47635;SDS011;33364;50.766;15.338;2023-07-29T12:12:22;1.92;;;1.20;;
47635;SDS011;33364;50.766;15.338;2023-07-29T12:14:48;2.13;;;1.40;;
47635;SDS011;33364;50.766;15.338;2023-07-29T12:17:14;2.17;;;1.55;;
47635;SDS011;33364;50.766;15.338;2023-07-29T12:19:41;2.53;;;1.60;;
47635;SDS011;33364;50.766;15.338;2023-07-29T12:22:08;1.67;;;1.33;;
47635;SDS011;33364;50.766;15.338;2023-07-29T12:24:35;2.20;;;1.40;;
47635;SDS011;33364;50.766;15.338;2023-07-29T12:27:03;1.40;;;1.30;;
47635;SDS011;33364;50.766;15.338;2023-07-29T12:29:29;1.73;;;1.40;;
47635;SDS011;33364;50.766;15.338;2023-07-29T12:31:56;1.90;;;1.70;;
47635;SDS011;33364;50.766;15.338;2023-07-29T12:34:27;4.45;;;1.85;;
47635;SDS011;33364;50.766;15.338;2023-07-29T12:36:54;2.88;;;1.40;;
47635;SDS011;33364;50.766;15.338;2023-07-29T12:39:21;1.50;;;1.38;;
47635;SDS011;33364;50.766;15.338;2023-07-29T12:41:49;1.67;;;1.58;;
47635;SDS011;33364;50.766;15.338;2023-07-29T12:44:16;3.22;;;1.85;;
47635;SDS011;33364;50.766;15.338;2023-07-29T12:46:43;2.22;;;2.03;;
47635;SDS011;33364;50.766;15.338;2023-07-29T12:49:09;3.88;;;2.03;;
47635;SDS011;33364;50.766;15.338;2023-07-29T12:51:35;3.53;;;1.88;;
47635;SDS011;33364;50.766;15.338;2023-07-29T12:54:05;5.10;;;1.63;;
47635;SDS011;33364;50.766;15.338;2023-07-29T12:56:31;3.88;;;1.80;;
47635;SDS011;33364;50.766;15.338;2023-07-29T12:58:58;2.40;;;1.85;;
47635;SDS011;33364;50.766;15.338;2023-07-29T13:01:25;2.65;;;2.20;;
47635;SDS011;33364;50.766;15.338;2023-07-29T13:03:51;2.88;;;1.45;;
47635;SDS011;33364;50.766;15.338;2023-07-29T13:06:17;4.70;;;1.98;;
47635;SDS011;33364;50.766;15.338;2023-07-29T13:08:43;2.90;;;1.60;;
47635;SDS011;33364;50.766;15.338;2023-07-29T13:11:10;3.35;;;1.52;;
47635;SDS011;33364;50.766;15.338;2023-07-29T13:13:35;3.78;;;1.88;;
47635;SDS011;33364;50.766;15.338;2023-07-29T13:16:01;3.78;;;1.70;;
47635;SDS011;33364;50.766;15.338;2023-07-29T13:18:27;3.40;;;1.80;;
47635;SDS011;33364;50.766;15.338;2023-07-29T13:20:54;4.57;;;2.08;;
47635;SDS011;33364;50.766;15.338;2023-07-29T13:23:20;5.45;;;2.00;;
47635;SDS011;33364;50.766;15.338;2023-07-29T13:25:47;2.17;;;1.77;;
47635;SDS011;33364;50.766;15.338;2023-07-29T13:28:13;3.05;;;2.10;;
47635;SDS011;33364;50.766;15.338;2023-07-29T13:30:39;2.97;;;2.40;;
47635;SDS011;33364;50.766;15.338;2023-07-29T13:33:08;2.63;;;1.92;;
47635;SDS011;33364;50.766;15.338;2023-07-29T13:35:34;6.25;;;2.10;;
47635;SDS011;33364;50.766;15.338;2023-07-29T13:38:00;4.70;;;2.35;;
47635;SDS011;33364;50.766;15.338;2023-07-29T13:40:27;5.35;;;2.33;;
47635;SDS011;33364;50.766;15.338;2023-07-29T13:42:53;4.72;;;1.90;;
47635;SDS011;33364;50.766;15.338;2023-07-29T13:45:20;4.28;;;2.00;;
47635;SDS011;33364;50.766;15.338;2023-07-29T13:47:46;7.13;;;1.85;;
47635;SDS011;33364;50.766;15.338;2023-07-29T13:50:12;3.78;;;1.80;;
47635;SDS011;33364;50.766;15.338;2023-07-29T13:52:38;4.60;;;1.75;;
47635;SDS011;33364;50.766;15.338;2023-07-29T13:55:04;11.07;;;2.92;;
47635;SDS011;33364;50.766;15.338;2023-07-29T13:57:31;4.07;;;1.58;;
47635;SDS011;33364;50.766;15.338;2023-07-29T13:59:57;5.05;;;1.30;;
47635;SDS011;33364;50.766;15.338;2023-07-29T14:02:23;4.43;;;1.40;;
47635;SDS011;33364;50.766;15.338;2023-07-29T14:04:49;2.22;;;1.35;;
47635;SDS011;33364;50.766;15.338;2023-07-29T14:07:15;3.33;;;1.50;;
47635;SDS011;33364;50.766;15.338;2023-07-29T14:09:41;2.22;;;0.95;;
47635;SDS011;33364;50.766;15.338;2023-07-29T14:12:08;4.90;;;1.50;;
47635;SDS011;33364;50.766;15.338;2023-07-29T14:14:38;3.03;;;1.50;;
47635;SDS011;33364;50.766;15.338;2023-07-29T14:17:04;1.65;;;0.95;;
47635;SDS011;33364;50.766;15.338;2023-07-29T14:19:31;2.03;;;1.40;;
47635;SDS011;33364;50.766;15.338;2023-07-29T14:21:56;2.42;;;1.52;;
47635;SDS011;33364;50.766;15.338;2023-07-29T14:24:22;2.78;;;0.90;;
47635;SDS011;33364;50.766;15.338;2023-07-29T14:26:49;1.58;;;1.02;;
47635;SDS011;33364;50.766;15.338;2023-07-29T14:29:14;2.45;;;1.40;;
47635;SDS011;33364;50.766;15.338;2023-07-29T14:31:40;4.10;;;1.52;;
47635;SDS011;33364;50.766;15.338;2023-07-29T14:34:06;3.55;;;0.90;;
47635;SDS011;33364;50.766;15.338;2023-07-29T14:36:32;1.67;;;0.90;;
47635;SDS011;33364;50.766;15.338;2023-07-29T14:38:58;3.90;;;0.82;;
47635;SDS011;33364;50.766;15.338;2023-07-29T14:41:23;2.15;;;1.10;;
47635;SDS011;33364;50.766;15.338;2023-07-29T14:43:50;1.20;;;0.98;;
47635;SDS011;33364;50.766;15.338;2023-07-29T14:46:15;2.38;;;1.70;;
47635;SDS011;33364;50.766;15.338;2023-07-29T14:48:41;1.77;;;1.00;;
47635;SDS011;33364;50.766;15.338;2023-07-29T14:51:07;2.55;;;0.98;;
47635;SDS011;33364;50.766;15.338;2023-07-29T14:53:33;4.53;;;0.90;;